Time;durP1;ratioP1;P1;durP2;ratioP2;P2;SDS_P1;SDS_P2;PMS_P1;PMS_P2;Temp;Humidity;BMP_temperature;BMP_pressure;BME280_temperature;BME280_humidity;BME280_pressure;Samples;Min_cycle;Max_cycle;Signal;HPM_P1;HPM_P2
2023/08/29 00:02:17;;;;;;;1.17;0.93;;;;;;;;;;5006858;28;20032;-83
2023/08/29 00:04:43;;;;;;;1.00;0.90;;;;;;;;;;5003695;28;20540;-83
2023/08/29 00:07:09;;;;;;;1.80;1.35;;;;;;;;;;4998618;28;20018;-83
2023/08/29 00:09:35;;;;;;;1.92;1.25;;;;;;;;;;5007755;28;20018;-84
2023/08/29 00:12:03;;;;;;;0.98;0.85;;;;;;;;;;4996399;28;20046;-84
2023/08/29 00:14:29;;;;;;;1.20;1.00;;;;;;;;;;5008801;28;20033;-83
2023/08/29 00:16:55;;;;;;;1.45;0.80;;;;;;;;;;5007381;28;20116;-83
2023/08/29 00:19:21;;;;;;;1.10;0.90;;;;;;;;;;5007362;28;20667;-83
2023/08/29 00:21:47;;;;;;;1.38;1.00;;;;;;;;;;4996451;28;20186;-84
2023/08/29 00:24:14;;;;;;;0.70;0.65;;;;;;;;;;5009514;28;20584;-84
2023/08/29 00:26:41;;;;;;;1.10;0.75;;;;;;;;;;5009122;28;20049;-84
2023/08/29 00:29:07;;;;;;;0.77;0.73;;;;;;;;;;5004896;28;20026;-84
2023/08/29 00:31:33;;;;;;;0.70;0.70;;;;;;;;;;5000559;28;20057;-84
2023/08/29 00:33:59;;;;;;;0.95;0.85;;;;;;;;;;5008889;28;20081;-84
2023/08/29 00:36:25;;;;;;;1.10;0.85;;;;;;;;;;5008769;28;20026;-83
2023/08/29 00:38:51;;;;;;;0.98;0.88;;;;;;;;;;5005974;28;20130;-83
2023/08/29 00:41:17;;;;;;;2.67;0.80;;;;;;;;;;5006944;28;20033;-83
2023/08/29 00:43:42;;;;;;;1.63;0.82;;;;;;;;;;5012479;28;20030;-83
2023/08/29 00:46:08;;;;;;;0.80;0.80;;;;;;;;;;5012537;28;20038;-84
2023/08/29 00:48:35;;;;;;;1.42;1.23;;;;;;;;;;5000999;28;20014;-83
2023/08/29 00:51:01;;;;;;;0.70;0.70;;;;;;;;;;5011327;28;20057;-84
2023/08/29 00:53:27;;;;;;;1.92;0.95;;;;;;;;;;5012201;28;20026;-83
2023/08/29 00:55:53;;;;;;;0.65;0.63;;;;;;;;;;5012486;28;20479;-84
2023/08/29 00:58:19;;;;;;;0.77;0.77;;;;;;;;;;5010916;28;20033;-83
2023/08/29 01:00:46;;;;;;;0.73;0.73;;;;;;;;;;5011139;28;20129;-83
2023/08/29 01:03:12;;;;;;;0.90;0.88;;;;;;;;;;5008321;28;20034;-83
2023/08/29 01:05:38;;;;;;;1.33;0.85;;;;;;;;;;5007177;28;20037;-83
2023/08/29 01:08:05;;;;;;;1.60;1.20;;;;;;;;;;5011319;28;20540;-83
2023/08/29 01:10:37;;;;;;;1.10;0.90;;;;;;;;;;5006053;28;20079;-84
2023/08/29 01:13:11;;;;;;;5.05;1.10;;;;;;;;;;5010583;28;20492;-83
2023/08/29 01:15:37;;;;;;;0.75;0.68;;;;;;;;;;5002450;28;20462;-83
2023/08/29 01:18:05;;;;;;;1.08;0.93;;;;;;;;;;4996234;28;20031;-83
2023/08/29 01:20:32;;;;;;;1.55;0.75;;;;;;;;;;5011064;28;20028;-84
2023/08/29 01:23:09;;;;;;;0.90;0.82;;;;;;;;;;5007027;28;20041;-83
2023/08/29 01:25:43;;;;;;;1.50;1.10;;;;;;;;;;5011572;28;20033;-83
2023/08/29 01:28:09;;;;;;;0.90;0.80;;;;;;;;;;5009474;28;20479;-83
2023/08/29 01:30:39;;;;;;;0.98;0.70;;;;;;;;;;5009806;28;20036;-83
2023/08/29 01:33:05;;;;;;;2.47;0.80;;;;;;;;;;5008729;28;20140;-83
2023/08/29 01:35:31;;;;;;;4.22;0.90;;;;;;;;;;5011004;28;20489;-84
2023/08/29 01:37:57;;;;;;;2.97;1.08;;;;;;;;;;5010040;28;20018;-83
2023/08/29 01:40:23;;;;;;;1.27;0.85;;;;;;;;;;5025917;28;20584;-83
2023/08/29 01:42:49;;;;;;;0.80;0.80;;;;;;;;;;5008528;28;20025;-83
2023/08/29 01:45:15;;;;;;;0.85;0.85;;;;;;;;;;5008687;28;20029;-83
2023/08/29 01:47:42;;;;;;;0.80;0.75;;;;;;;;;;5003960;28;20022;-83
2023/08/29 01:50:09;;;;;;;0.90;0.90;;;;;;;;;;5008715;28;20078;-83
2023/08/29 01:52:35;;;;;;;1.15;0.90;;;;;;;;;;5005607;28;20035;-83
2023/08/29 01:55:01;;;;;;;0.63;0.63;;;;;;;;;;5004303;28;20476;-83
2023/08/29 01:57:28;;;;;;;0.93;0.70;;;;;;;;;;5010127;28;20116;-83
2023/08/29 01:59:54;;;;;;;1.73;1.00;;;;;;;;;;5009622;28;20492;-83
2023/08/29 02:02:20;;;;;;;1.02;0.85;;;;;;;;;;5006669;28;20025;-83
2023/08/29 02:04:46;;;;;;;0.85;0.75;;;;;;;;;;5007626;28;20026;-84
2023/08/29 02:07:12;;;;;;;1.88;0.73;;;;;;;;;;5007350;28;20111;-84
2023/08/29 02:09:38;;;;;;;0.80;0.70;;;;;;;;;;5009405;28;20437;-83
2023/08/29 02:12:04;;;;;;;0.65;0.65;;;;;;;;;;5007958;28;20033;-83
2023/08/29 02:14:30;;;;;;;1.58;1.30;;;;;;;;;;5004328;28;20021;-84
2023/08/29 02:16:56;;;;;;;0.90;0.88;;;;;;;;;;5003809;28;20391;-83
2023/08/29 02:19:22;;;;;;;1.52;0.80;;;;;;;;;;4997458;28;20443;-84
2023/08/29 02:21:48;;;;;;;1.02;0.63;;;;;;;;;;5008807;28;20050;-83
2023/08/29 02:24:14;;;;;;;0.88;0.80;;;;;;;;;;4998723;28;20166;-83
2023/08/29 02:26:40;;;;;;;1.13;0.88;;;;;;;;;;5009062;28;20014;-83
2023/08/29 02:29:06;;;;;;;0.80;0.70;;;;;;;;;;5010032;28;20454;-84
2023/08/29 02:31:32;;;;;;;0.85;0.60;;;;;;;;;;5007937;28;20038;-84
2023/08/29 02:33:58;;;;;;;1.45;0.70;;;;;;;;;;5007821;28;20052;-84
2023/08/29 02:36:24;;;;;;;0.57;0.57;;;;;;;;;;5008124;28;20143;-84
2023/08/29 02:38:51;;;;;;;0.88;0.80;;;;;;;;;;4997568;28;20025;-83
2023/08/29 02:41:17;;;;;;;1.15;1.02;;;;;;;;;;5008382;28;20113;-83
2023/08/29 02:43:43;;;;;;;1.65;1.00;;;;;;;;;;5008788;28;20030;-84
2023/08/29 02:46:09;;;;;;;0.80;0.80;;;;;;;;;;5008067;28;20136;-83
2023/08/29 02:48:35;;;;;;;1.15;1.00;;;;;;;;;;5009604;28;20041;-84
2023/08/29 02:51:01;;;;;;;0.95;0.70;;;;;;;;;;5006489;28;20029;-84
2023/08/29 02:53:27;;;;;;;1.25;0.90;;;;;;;;;;5007221;28;20045;-83
2023/08/29 02:55:53;;;;;;;0.80;0.80;;;;;;;;;;5005229;28;20030;-84
2023/08/29 02:58:19;;;;;;;0.85;0.65;;;;;;;;;;5005950;28;20107;-84
2023/08/29 03:00:47;;;;;;;0.60;0.60;;;;;;;;;;5009194;28;20128;-83
2023/08/29 03:03:13;;;;;;;0.70;0.65;;;;;;;;;;5006916;28;20129;-84
2023/08/29 03:05:42;;;;;;;0.80;0.70;;;;;;;;;;5009764;28;20034;-83
2023/08/29 03:08:08;;;;;;;1.35;0.70;;;;;;;;;;5008997;28;20121;-83
2023/08/29 03:10:38;;;;;;;0.95;0.70;;;;;;;;;;5009743;28;20034;-83
2023/08/29 03:13:04;;;;;;;1.05;0.82;;;;;;;;;;5008659;28;20083;-83
2023/08/29 03:15:33;;;;;;;1.48;0.95;;;;;;;;;;5009160;28;20040;-84
2023/08/29 03:18:00;;;;;;;0.82;0.70;;;;;;;;;;5003100;28;20056;-83
2023/08/29 03:20:25;;;;;;;0.98;0.82;;;;;;;;;;5003851;28;20490;-83
2023/08/29 03:22:53;;;;;;;0.65;0.60;;;;;;;;;;4994170;28;20037;-83
2023/08/29 03:25:22;;;;;;;1.52;0.75;;;;;;;;;;5009429;28;20038;-83
2023/08/29 03:27:49;;;;;;;1.48;0.82;;;;;;;;;;4995918;28;20044;-83
2023/08/29 03:30:15;;;;;;;1.45;0.88;;;;;;;;;;5008551;28;20017;-83
2023/08/29 03:32:41;;;;;;;1.10;0.98;;;;;;;;;;5004180;28;20554;-83
2023/08/29 03:35:07;;;;;;;1.10;0.80;;;;;;;;;;5008487;28;20413;-83
2023/08/29 03:37:33;;;;;;;0.65;0.65;;;;;;;;;;4992309;28;20030;-83
2023/08/29 03:40:08;;;;;;;0.70;0.70;;;;;;;;;;5004975;28;20033;-83
2023/08/29 03:42:34;;;;;;;0.60;0.60;;;;;;;;;;5004353;28;20022;-83
2023/08/29 03:45:00;;;;;;;1.35;0.77;;;;;;;;;;5000257;28;20096;-83
2023/08/29 03:47:26;;;;;;;1.08;0.60;;;;;;;;;;5009125;28;20095;-83
2023/08/29 03:49:53;;;;;;;1.00;0.70;;;;;;;;;;5007333;28;20026;-83
2023/08/29 03:52:23;;;;;;;0.60;0.60;;;;;;;;;;5009361;28;20056;-83
2023/08/29 03:54:49;;;;;;;0.70;0.70;;;;;;;;;;5007714;28;20130;-83
2023/08/29 03:57:15;;;;;;;0.63;0.63;;;;;;;;;;5008744;28;20033;-84
2023/08/29 03:59:41;;;;;;;0.73;0.68;;;;;;;;;;5004692;28;20022;-83
2023/08/29 04:02:08;;;;;;;0.70;0.70;;;;;;;;;;5003181;28;20426;-83
2023/08/29 04:04:35;;;;;;;0.73;0.73;;;;;;;;;;5000430;28;20178;-80
2023/08/29 04:07:01;;;;;;;0.70;0.70;;;;;;;;;;5005044;28;20530;-82
2023/08/29 04:09:27;;;;;;;0.82;0.70;;;;;;;;;;5006111;28;20034;-81
2023/08/29 04:11:53;;;;;;;1.30;0.63;;;;;;;;;;5007718;28;20026;-81
2023/08/29 04:14:19;;;;;;;0.73;0.73;;;;;;;;;;4999613;28;20048;-82
2023/08/29 04:16:45;;;;;;;0.47;0.47;;;;;;;;;;5002608;28;20026;-82
2023/08/29 04:19:14;;;;;;;0.50;0.50;;;;;;;;;;5011855;28;20080;-82
2023/08/29 04:21:40;;;;;;;0.52;0.47;;;;;;;;;;5009270;28;20026;-90
2023/08/29 04:24:06;;;;;;;0.70;0.70;;;;;;;;;;5011850;28;20512;-89
2023/08/29 04:26:32;;;;;;;0.52;0.50;;;;;;;;;;5013576;28;20030;-88
2023/08/29 04:28:58;;;;;;;0.57;0.57;;;;;;;;;;5016670;28;20044;-89
2023/08/29 04:31:24;;;;;;;0.77;0.77;;;;;;;;;;5013542;28;20030;-76
2023/08/29 04:33:50;;;;;;;0.65;0.63;;;;;;;;;;5003487;28;20523;-81
2023/08/29 04:36:25;;;;;;;0.65;0.65;;;;;;;;;;5001900;28;20025;-81
2023/08/29 04:38:51;;;;;;;0.65;0.65;;;;;;;;;;5004348;28;20478;-81
2023/08/29 04:41:17;;;;;;;1.33;0.60;;;;;;;;;;5003159;28;20116;-81
2023/08/29 04:43:43;;;;;;;0.55;0.55;;;;;;;;;;5009490;28;20049;-81
2023/08/29 04:46:09;;;;;;;1.58;0.52;;;;;;;;;;5013070;28;20026;-81
2023/08/29 04:48:35;;;;;;;0.98;0.73;;;;;;;;;;5009181;28;20200;-81
2023/08/29 04:51:02;;;;;;;1.35;0.65;;;;;;;;;;5010882;28;20411;-81
2023/08/29 04:53:28;;;;;;;2.47;1.00;;;;;;;;;;5003077;28;20524;-81
2023/08/29 04:56:01;;;;;;;9.73;0.68;;;;;;;;;;5009803;28;20112;-81
2023/08/29 04:58:27;;;;;;;0.60;0.60;;;;;;;;;;5003471;28;20030;-80
2023/08/29 05:00:53;;;;;;;0.40;0.40;;;;;;;;;;5004449;28;20207;-85
2023/08/29 05:03:19;;;;;;;0.95;0.80;;;;;;;;;;5012425;28;20030;-93
2023/08/29 05:05:46;;;;;;;0.60;0.60;;;;;;;;;;5012584;28;20558;-94
2023/08/29 05:08:12;;;;;;;0.60;0.60;;;;;;;;;;5018172;28;20018;-94
2023/08/29 05:10:38;;;;;;;0.60;0.60;;;;;;;;;;5009977;28;20030;-84
2023/08/29 05:13:04;;;;;;;0.50;0.50;;;;;;;;;;5009784;28;20406;-82
2023/08/29 05:15:30;;;;;;;0.93;0.50;;;;;;;;;;5013683;28;20029;-82
2023/08/29 05:17:56;;;;;;;0.50;0.50;;;;;;;;;;5013323;28;20041;-87
2023/08/29 05:20:22;;;;;;;1.58;0.52;;;;;;;;;;5009117;28;20041;-83
2023/08/29 05:22:48;;;;;;;1.02;0.52;;;;;;;;;;5013198;28;20026;-83
2023/08/29 05:25:14;;;;;;;1.85;0.68;;;;;;;;;;5007514;28;20044;-85
2023/08/29 05:27:40;;;;;;;0.75;0.50;;;;;;;;;;5009919;28;20033;-86
2023/08/29 05:30:07;;;;;;;4.65;0.68;;;;;;;;;;5007346;28;20033;-85
2023/08/29 05:32:33;;;;;;;1.65;0.70;;;;;;;;;;5002038;28;20036;-85
2023/08/29 05:34:59;;;;;;;0.88;0.65;;;;;;;;;;5008294;28;20379;-84
2023/08/29 05:37:25;;;;;;;3.22;1.02;;;;;;;;;;5009096;28;20033;-84
2023/08/29 05:39:52;;;;;;;0.68;0.60;;;;;;;;;;5009761;28;20525;-83
2023/08/29 05:42:18;;;;;;;0.70;0.70;;;;;;;;;;5006708;28;20034;-84
2023/08/29 05:44:44;;;;;;;0.65;0.65;;;;;;;;;;5009405;28;20038;-83
2023/08/29 05:47:10;;;;;;;1.48;0.65;;;;;;;;;;5009938;28;20035;-83
2023/08/29 05:49:36;;;;;;;1.23;0.90;;;;;;;;;;5009014;28;20117;-83
2023/08/29 05:52:02;;;;;;;0.40;0.40;;;;;;;;;;5009562;28;20105;-84
2023/08/29 05:54:29;;;;;;;0.68;0.57;;;;;;;;;;5010664;28;20021;-83
2023/08/29 05:56:55;;;;;;;0.43;0.43;;;;;;;;;;5008109;28;20060;-76
2023/08/29 05:59:21;;;;;;;4.28;0.93;;;;;;;;;;5010945;28;20026;-85
2023/08/29 06:01:48;;;;;;;0.70;0.70;;;;;;;;;;5009915;28;20045;-84
2023/08/29 06:04:14;;;;;;;1.10;0.70;;;;;;;;;;5009390;28;20615;-84
2023/08/29 06:06:40;;;;;;;0.73;0.70;;;;;;;;;;5009576;28;20018;-84
2023/08/29 06:09:08;;;;;;;0.70;0.60;;;;;;;;;;5010579;28;20030;-83
2023/08/29 06:11:34;;;;;;;0.45;0.40;;;;;;;;;;5007112;28;20533;-78
2023/08/29 06:14:00;;;;;;;0.40;0.40;;;;;;;;;;5006758;28;20025;-79
2023/08/29 06:16:26;;;;;;;12.13;0.73;;;;;;;;;;5005494;28;20042;-79
2023/08/29 06:18:52;;;;;;;0.60;0.60;;;;;;;;;;5010105;28;20037;-78
2023/08/29 06:21:25;;;;;;;0.70;0.70;;;;;;;;;;5006830;28;20021;-78
2023/08/29 06:23:51;;;;;;;1.25;0.57;;;;;;;;;;5008973;28;20461;-78
2023/08/29 06:26:17;;;;;;;0.45;0.45;;;;;;;;;;5009175;28;20022;-78
2023/08/29 06:28:43;;;;;;;0.50;0.50;;;;;;;;;;5004447;28;20041;-78
2023/08/29 06:31:09;;;;;;;0.70;0.70;;;;;;;;;;5009210;28;20050;-78
2023/08/29 06:33:35;;;;;;;0.60;0.60;;;;;;;;;;4999515;28;20026;-78
2023/08/29 06:36:01;;;;;;;1.05;0.70;;;;;;;;;;5010266;28;20137;-78
2023/08/29 06:38:35;;;;;;;0.50;0.50;;;;;;;;;;5010576;28;20038;-79
2023/08/29 06:41:01;;;;;;;0.40;0.40;;;;;;;;;;5006209;28;20022;-78
2023/08/29 06:43:27;;;;;;;1.60;0.80;;;;;;;;;;5007368;28;20088;-78
2023/08/29 06:45:53;;;;;;;0.70;0.70;;;;;;;;;;5010063;28;20044;-78
2023/08/29 06:48:19;;;;;;;0.57;0.57;;;;;;;;;;4998782;28;20391;-78
2023/08/29 06:50:46;;;;;;;0.50;0.50;;;;;;;;;;4991985;28;20022;-78
2023/08/29 06:53:12;;;;;;;0.60;0.60;;;;;;;;;;5008874;28;20022;-78
2023/08/29 06:55:38;;;;;;;1.05;0.80;;;;;;;;;;5009726;28;20041;-78
2023/08/29 06:58:05;;;;;;;0.50;0.50;;;;;;;;;;5009678;28;20479;-78
2023/08/29 07:00:31;;;;;;;1.40;0.68;;;;;;;;;;5009665;28;20048;-78
2023/08/29 07:02:57;;;;;;;0.65;0.55;;;;;;;;;;5007841;28;20117;-78
2023/08/29 07:05:23;;;;;;;1.35;0.98;;;;;;;;;;5004701;28;20121;-78
2023/08/29 07:07:49;;;;;;;0.65;0.65;;;;;;;;;;4997779;28;20154;-78
2023/08/29 07:10:15;;;;;;;0.68;0.68;;;;;;;;;;5009354;28;20546;-78
2023/08/29 07:12:42;;;;;;;0.80;0.60;;;;;;;;;;5002994;28;20117;-78
2023/08/29 07:15:08;;;;;;;0.60;0.60;;;;;;;;;;5007770;28;20088;-78
2023/08/29 07:17:34;;;;;;;0.60;0.60;;;;;;;;;;4997603;28;20030;-78
2023/08/29 07:20:00;;;;;;;0.60;0.50;;;;;;;;;;4999259;28;20103;-78
2023/08/29 07:22:26;;;;;;;0.80;0.50;;;;;;;;;;4997457;28;20038;-78
2023/08/29 07:24:52;;;;;;;0.93;0.90;;;;;;;;;;5002177;28;20034;-78
2023/08/29 07:27:18;;;;;;;0.82;0.60;;;;;;;;;;5001764;28;20183;-78
2023/08/29 07:29:44;;;;;;;0.60;0.52;;;;;;;;;;5009289;28;20104;-78
2023/08/29 07:32:10;;;;;;;0.60;0.60;;;;;;;;;;5013681;28;20462;-78
2023/08/29 07:34:39;;;;;;;1.60;0.82;;;;;;;;;;5009096;28;20022;-78
2023/08/29 07:37:05;;;;;;;0.93;0.82;;;;;;;;;;5008256;28;20026;-78
2023/08/29 07:39:32;;;;;;;3.83;0.60;;;;;;;;;;5009115;28;20037;-78
2023/08/29 07:41:58;;;;;;;0.57;0.47;;;;;;;;;;5008806;28;20470;-78
2023/08/29 07:44:24;;;;;;;0.50;0.50;;;;;;;;;;5006010;28;20040;-79
2023/08/29 07:46:50;;;;;;;0.40;0.40;;;;;;;;;;5007076;28;20076;-78
2023/08/29 07:49:20;;;;;;;0.65;0.50;;;;;;;;;;5009148;28;20083;-79
2023/08/29 07:51:47;;;;;;;0.60;0.60;;;;;;;;;;5008014;28;20033;-78
2023/08/29 07:54:13;;;;;;;0.70;0.70;;;;;;;;;;5002964;28;20133;-78
2023/08/29 07:56:39;;;;;;;0.90;0.80;;;;;;;;;;5008238;28;20069;-78
2023/08/29 07:59:05;;;;;;;0.93;0.70;;;;;;;;;;5008531;28;20048;-79
2023/08/29 08:01:31;;;;;;;0.60;0.50;;;;;;;;;;5008841;28;20100;-78
2023/08/29 08:03:57;;;;;;;0.40;0.40;;;;;;;;;;5008700;28;20033;-78
2023/08/29 08:06:23;;;;;;;1.98;0.98;;;;;;;;;;5008781;28;20072;-78
2023/08/29 08:08:48;;;;;;;0.45;0.30;;;;;;;;;;5002140;28;20033;-78
2023/08/29 08:11:14;;;;;;;0.47;0.47;;;;;;;;;;5001601;28;20026;-78
2023/08/29 08:13:40;;;;;;;1.23;0.60;;;;;;;;;;5008883;28;20030;-79
2023/08/29 08:16:06;;;;;;;0.73;0.50;;;;;;;;;;5008851;28;20049;-78
2023/08/29 08:18:32;;;;;;;0.52;0.50;;;;;;;;;;5008161;28;20030;-78
2023/08/29 08:20:58;;;;;;;0.57;0.57;;;;;;;;;;5003487;28;20084;-79
2023/08/29 08:23:24;;;;;;;0.50;0.50;;;;;;;;;;5008506;28;20030;-78
2023/08/29 08:25:50;;;;;;;0.40;0.40;;;;;;;;;;5023685;28;20030;-79
2023/08/29 08:28:16;;;;;;;0.55;0.55;;;;;;;;;;5000575;28;20035;-79
2023/08/29 08:30:42;;;;;;;0.45;0.45;;;;;;;;;;5005254;28;20054;-79
2023/08/29 08:33:08;;;;;;;0.40;0.40;;;;;;;;;;5007923;28;20026;-78
2023/08/29 08:35:34;;;;;;;0.50;0.50;;;;;;;;;;4994807;28;20043;-79
2023/08/29 08:38:00;;;;;;;0.50;0.50;;;;;;;;;;4998299;28;20493;-78
2023/08/29 08:40:26;;;;;;;0.95;0.75;;;;;;;;;;4991295;28;20077;-79
2023/08/29 08:42:53;;;;;;;0.77;0.77;;;;;;;;;;4991044;28;20068;-79
2023/08/29 08:45:19;;;;;;;0.70;0.70;;;;;;;;;;5008486;28;20034;-79
2023/08/29 08:47:46;;;;;;;0.57;0.50;;;;;;;;;;5008849;28;20072;-79
2023/08/29 08:50:11;;;;;;;0.50;0.50;;;;;;;;;;5008521;28;20457;-78
2023/08/29 08:52:38;;;;;;;0.70;0.70;;;;;;;;;;5008561;28;20018;-79
2023/08/29 08:55:08;;;;;;;0.50;0.50;;;;;;;;;;5005871;28;20029;-79
2023/08/29 08:57:34;;;;;;;0.40;0.40;;;;;;;;;;4989064;28;20035;-79
2023/08/29 09:00:00;;;;;;;0.55;0.55;;;;;;;;;;5018674;28;20033;-78
2023/08/29 09:02:27;;;;;;;1.02;0.60;;;;;;;;;;5007834;28;20052;-79
2023/08/29 09:04:53;;;;;;;0.50;0.50;;;;;;;;;;5011850;28;20657;-80
2023/08/29 09:07:19;;;;;;;0.63;0.63;;;;;;;;;;5012259;28;20131;-78
2023/08/29 09:10:05;;;;;;;0.40;0.40;;;;;;;;;;5011081;28;20022;-79
2023/08/29 09:12:31;;;;;;;0.68;0.57;;;;;;;;;;5000344;28;20034;-79
2023/08/29 09:14:57;;;;;;;0.50;0.50;;;;;;;;;;4998779;28;20017;-79
2023/08/29 09:17:23;;;;;;;0.95;0.60;;;;;;;;;;5012081;28;20540;-79
2023/08/29 09:19:49;;;;;;;0.60;0.60;;;;;;;;;;5010879;28;20030;-79
2023/08/29 09:22:15;;;;;;;0.85;0.77;;;;;;;;;;4999522;28;20034;-79
2023/08/29 09:24:41;;;;;;;0.45;0.40;;;;;;;;;;4999133;28;20031;-79
2023/08/29 09:27:11;;;;;;;0.52;0.50;;;;;;;;;;4995508;28;20044;-79
2023/08/29 09:29:37;;;;;;;0.60;0.50;;;;;;;;;;5001370;28;20058;-79
2023/08/29 09:32:13;;;;;;;0.60;0.60;;;;;;;;;;5010161;28;20096;-77
2023/08/29 09:34:40;;;;;;;0.70;0.70;;;;;;;;;;4997048;28;20021;-75
2023/08/29 09:37:06;;;;;;;0.45;0.45;;;;;;;;;;5005035;28;20379;-74
2023/08/29 09:39:32;;;;;;;0.60;0.60;;;;;;;;;;4993255;28;20495;-77
2023/08/29 09:42:02;;;;;;;0.73;0.50;;;;;;;;;;4997519;28;20058;-79
2023/08/29 09:44:28;;;;;;;0.60;0.60;;;;;;;;;;5003930;28;20238;-77
2023/08/29 09:46:55;;;;;;;1.13;0.60;;;;;;;;;;5010888;28;20113;-77
2023/08/29 09:49:21;;;;;;;0.43;0.43;;;;;;;;;;5010678;28;20048;-77
2023/08/29 09:51:48;;;;;;;0.40;0.40;;;;;;;;;;5009057;28;20080;-78
2023/08/29 09:54:16;;;;;;;0.60;0.60;;;;;;;;;;5010531;28;20038;-77
2023/08/29 09:56:43;;;;;;;0.63;0.63;;;;;;;;;;5012428;28;20033;-78
2023/08/29 09:59:13;;;;;;;0.55;0.50;;;;;;;;;;5010571;28;20041;-77
2023/08/29 10:01:42;;;;;;;0.50;0.50;;;;;;;;;;5010511;28;20042;-77
2023/08/29 10:04:11;;;;;;;0.57;0.50;;;;;;;;;;5009099;28;20034;-77
2023/08/29 10:06:38;;;;;;;0.47;0.47;;;;;;;;;;5008286;28;20026;-77
2023/08/29 10:09:05;;;;;;;1.15;0.60;;;;;;;;;;5007551;28;20040;-78
2023/08/29 10:11:31;;;;;;;0.77;0.40;;;;;;;;;;5010262;28;20075;-78
2023/08/29 10:13:59;;;;;;;0.73;0.43;;;;;;;;;;5007616;28;20029;-78
2023/08/29 10:16:25;;;;;;;0.60;0.60;;;;;;;;;;5009576;28;20045;-78
2023/08/29 10:18:52;;;;;;;0.60;0.47;;;;;;;;;;5009622;28;20029;-78
2023/08/29 10:21:21;;;;;;;0.82;0.55;;;;;;;;;;5009933;28;20037;-78
2023/08/29 10:23:48;;;;;;;2.65;0.70;;;;;;;;;;5008974;28;20026;-77
2023/08/29 10:26:15;;;;;;;0.55;0.55;;;;;;;;;;5009954;28;20391;-77
2023/08/29 10:28:41;;;;;;;1.75;0.50;;;;;;;;;;5009114;28;20036;-78
2023/08/29 10:31:08;;;;;;;0.77;0.40;;;;;;;;;;5006202;28;20026;-78
2023/08/29 10:33:37;;;;;;;0.63;0.60;;;;;;;;;;5008871;28;20028;-77
2023/08/29 10:36:03;;;;;;;0.50;0.50;;;;;;;;;;5006062;28;20492;-78
2023/08/29 10:38:36;;;;;;;0.57;0.55;;;;;;;;;;5009696;28;20037;-78
2023/08/29 10:41:04;;;;;;;0.60;0.60;;;;;;;;;;5008235;28;20037;-77
2023/08/29 10:43:30;;;;;;;0.52;0.50;;;;;;;;;;5010201;28;20115;-77
2023/08/29 10:45:57;;;;;;;0.40;0.40;;;;;;;;;;4998686;28;20030;-77
2023/08/29 10:48:51;;;;;;;0.60;0.60;;;;;;;;;;5007840;28;20060;-78
2023/08/29 10:51:22;;;;;;;0.63;0.63;;;;;;;;;;4997317;28;20034;-77
2023/08/29 10:53:49;;;;;;;0.40;0.40;;;;;;;;;;5009029;28;20026;-77
2023/08/29 10:56:17;;;;;;;0.63;0.60;;;;;;;;;;5009613;28;20096;-77
2023/08/29 10:58:44;;;;;;;0.90;0.68;;;;;;;;;;5006536;28;20117;-78
2023/08/29 11:01:28;;;;;;;0.60;0.60;;;;;;;;;;5000421;28;20140;-78
2023/08/29 11:03:55;;;;;;;0.55;0.55;;;;;;;;;;5003342;28;20053;-77
2023/08/29 11:06:22;;;;;;;0.60;0.60;;;;;;;;;;5008431;28;20049;-77
2023/08/29 11:08:48;;;;;;;1.85;0.80;;;;;;;;;;5009193;28;20053;-77
2023/08/29 11:11:16;;;;;;;0.63;0.63;;;;;;;;;;5003208;28;20030;-77
2023/08/29 11:13:55;;;;;;;0.60;0.60;;;;;;;;;;5008820;28;20030;-77
2023/08/29 11:16:21;;;;;;;0.60;0.60;;;;;;;;;;5008298;28;20508;-78
2023/08/29 11:18:47;;;;;;;0.60;0.50;;;;;;;;;;5009235;28;20034;-77
2023/08/29 11:21:15;;;;;;;0.43;0.43;;;;;;;;;;5008758;28;20560;-77
2023/08/29 11:23:42;;;;;;;0.70;0.60;;;;;;;;;;5009379;28;20044;-77
2023/08/29 11:26:08;;;;;;;0.70;0.70;;;;;;;;;;5008932;28;20028;-78
2023/08/29 11:28:38;;;;;;;0.68;0.68;;;;;;;;;;5007307;28;20120;-78
2023/08/29 11:31:05;;;;;;;0.40;0.40;;;;;;;;;;5009099;28;20084;-77
2023/08/29 11:33:32;;;;;;;0.57;0.57;;;;;;;;;;5008213;28;20032;-77
2023/08/29 11:35:58;;;;;;;0.65;0.65;;;;;;;;;;5009008;28;20026;-78
2023/08/29 11:38:29;;;;;;;1.02;0.75;;;;;;;;;;5007072;28;20136;-77
2023/08/29 11:40:55;;;;;;;0.60;0.60;;;;;;;;;;5008642;28;20041;-77
2023/08/29 11:43:21;;;;;;;0.82;0.63;;;;;;;;;;5006212;28;20112;-77
2023/08/29 11:45:47;;;;;;;0.70;0.60;;;;;;;;;;5008008;28;20059;-77
2023/08/29 11:48:13;;;;;;;1.10;0.70;;;;;;;;;;5007243;28;20037;-78
2023/08/29 11:50:39;;;;;;;0.60;0.60;;;;;;;;;;5008908;28;20093;-78
2023/08/29 11:53:05;;;;;;;0.60;0.60;;;;;;;;;;5003736;28;20041;-78
2023/08/29 11:55:31;;;;;;;0.70;0.70;;;;;;;;;;5007376;28;20030;-78
2023/08/29 11:57:58;;;;;;;0.98;0.77;;;;;;;;;;5002851;28;20034;-78
2023/08/29 12:00:27;;;;;;;0.50;0.50;;;;;;;;;;5002404;28;20046;-78
2023/08/29 12:02:53;;;;;;;0.60;0.60;;;;;;;;;;5008902;28;20033;-78
2023/08/29 12:05:22;;;;;;;0.82;0.65;;;;;;;;;;5008163;28;20033;-78
2023/08/29 12:07:53;;;;;;;0.70;0.70;;;;;;;;;;5008788;28;20445;-78
2023/08/29 12:10:19;;;;;;;0.57;0.57;;;;;;;;;;5000788;28;20029;-77
2023/08/29 12:12:45;;;;;;;0.70;0.68;;;;;;;;;;5005299;28;20031;-90
2023/08/29 12:15:14;;;;;;;0.98;0.70;;;;;;;;;;5009132;28;20034;-92
2023/08/29 12:17:41;;;;;;;0.77;0.60;;;;;;;;;;5007869;28;20495;-84
2023/08/29 12:20:13;;;;;;;1.02;0.90;;;;;;;;;;5004057;28;20038;-84
2023/08/29 12:22:41;;;;;;;0.68;0.68;;;;;;;;;;5004718;28;20038;-89
2023/08/29 12:25:08;;;;;;;0.68;0.68;;;;;;;;;;5002010;28;20037;-91
2023/08/29 12:27:33;;;;;;;0.63;0.63;;;;;;;;;;5001715;28;20037;-77
2023/08/29 12:29:59;;;;;;;0.60;0.60;;;;;;;;;;5001793;28;20022;-81
2023/08/29 12:32:27;;;;;;;0.77;0.60;;;;;;;;;;5008887;28;20080;-87
2023/08/29 12:34:54;;;;;;;1.65;0.70;;;;;;;;;;4999579;28;20034;-86
2023/08/29 12:37:20;;;;;;;0.88;0.63;;;;;;;;;;5005046;28;20037;-88
2023/08/29 12:39:46;;;;;;;0.45;0.45;;;;;;;;;;4999046;28;20960;-88
2023/08/29 12:42:12;;;;;;;1.33;0.80;;;;;;;;;;5007110;28;20449;-86
2023/08/29 12:44:38;;;;;;;0.88;0.80;;;;;;;;;;5008506;28;20455;-87
2023/08/29 12:47:04;;;;;;;0.60;0.60;;;;;;;;;;5001625;28;20497;-87
2023/08/29 12:49:30;;;;;;;0.90;0.80;;;;;;;;;;5013188;28;20033;-87
2023/08/29 12:51:56;;;;;;;0.50;0.47;;;;;;;;;;5008089;28;20529;-86
2023/08/29 12:54:22;;;;;;;0.60;0.60;;;;;;;;;;5011874;28;20091;-86
2023/08/29 12:56:48;;;;;;;0.75;0.73;;;;;;;;;;5010140;28;20041;-86
2023/08/29 12:59:14;;;;;;;0.88;0.85;;;;;;;;;;5008385;28;20038;-86
2023/08/29 13:01:40;;;;;;;0.98;0.93;;;;;;;;;;5006070;28;20033;-86
2023/08/29 13:04:06;;;;;;;0.70;0.68;;;;;;;;;;5011996;28;20520;-86
2023/08/29 13:06:32;;;;;;;0.65;0.63;;;;;;;;;;5008752;28;20476;-85
2023/08/29 13:08:59;;;;;;;1.52;1.05;;;;;;;;;;5006750;28;20040;-86
2023/08/29 13:11:25;;;;;;;0.70;0.70;;;;;;;;;;5008676;28;20037;-86
2023/08/29 13:13:51;;;;;;;1.38;1.02;;;;;;;;;;5009005;28;20546;-86
2023/08/29 13:16:17;;;;;;;1.00;0.90;;;;;;;;;;5011963;28;20398;-86
2023/08/29 13:18:44;;;;;;;1.00;0.88;;;;;;;;;;5001769;28;20042;-86
2023/08/29 13:21:11;;;;;;;0.77;0.77;;;;;;;;;;5020225;28;20057;-85
2023/08/29 13:23:37;;;;;;;0.77;0.75;;;;;;;;;;5007638;28;20105;-85
2023/08/29 13:26:03;;;;;;;0.70;0.70;;;;;;;;;;5007106;28;20434;-86
2023/08/29 13:28:30;;;;;;;1.23;0.95;;;;;;;;;;5001160;28;20085;-86
2023/08/29 13:30:58;;;;;;;0.95;0.82;;;;;;;;;;5004815;28;20030;-86
2023/08/29 13:33:24;;;;;;;0.90;0.85;;;;;;;;;;5007614;28;20402;-85
2023/08/29 13:35:50;;;;;;;0.70;0.70;;;;;;;;;;5010028;28;20026;-86
2023/08/29 13:38:16;;;;;;;0.85;0.80;;;;;;;;;;5007050;28;20525;-88
2023/08/29 13:40:43;;;;;;;0.95;0.90;;;;;;;;;;5007843;28;20571;-89
2023/08/29 13:43:09;;;;;;;0.65;0.65;;;;;;;;;;5010919;28;20037;-89
2023/08/29 13:45:35;;;;;;;1.05;0.95;;;;;;;;;;5004293;28;20128;-88
2023/08/29 13:48:03;;;;;;;0.73;0.73;;;;;;;;;;5008067;28;20026;-89
2023/08/29 13:50:29;;;;;;;0.98;0.70;;;;;;;;;;5002842;28;20018;-88
2023/08/29 13:52:56;;;;;;;0.73;0.60;;;;;;;;;;5000911;28;20445;-88
2023/08/29 13:55:27;;;;;;;0.93;0.90;;;;;;;;;;5007796;28;20553;-89
2023/08/29 13:57:53;;;;;;;;;;;;;;;;;;5008819;28;20029;-94
2023/08/29 14:00:20;;;;;;;1.65;0.95;;;;;;;;;;5006828;28;19993;-89
2023/08/29 14:02:47;;;;;;;0.80;0.70;;;;;;;;;;5007614;28;20022;-90
2023/08/29 14:05:13;;;;;;;2.83;0.80;;;;;;;;;;5008457;28;20505;-90
2023/08/29 14:07:39;;;;;;;0.88;0.88;;;;;;;;;;5002694;28;20068;-89
2023/08/29 14:10:05;;;;;;;1.15;0.98;;;;;;;;;;5006593;28;20018;-84
2023/08/29 14:12:31;;;;;;;0.70;0.70;;;;;;;;;;5006761;28;20072;-85
2023/08/29 14:14:57;;;;;;;1.08;0.90;;;;;;;;;;5008076;28;20033;-83
2023/08/29 14:17:23;;;;;;;0.77;0.77;;;;;;;;;;5008556;28;20105;-82
2023/08/29 14:19:49;;;;;;;0.73;0.70;;;;;;;;;;5007836;28;20034;-85
2023/08/29 14:22:15;;;;;;;1.23;0.80;;;;;;;;;;5008066;28;20410;-90
2023/08/29 14:24:44;;;;;;;0.90;0.90;;;;;;;;;;5006902;28;20030;-86
2023/08/29 14:27:10;;;;;;;0.60;0.60;;;;;;;;;;5008270;28;20045;-85
2023/08/29 14:29:36;;;;;;;0.80;0.80;;;;;;;;;;5005525;28;20066;-86
2023/08/29 14:32:02;;;;;;;1.35;0.90;;;;;;;;;;5003875;28;20183;-78
2023/08/29 14:34:42;;;;;;;1.10;1.00;;;;;;;;;;5001792;28;20065;-83
2023/08/29 14:37:09;;;;;;;0.93;0.80;;;;;;;;;;5007401;28;20018;-90
2023/08/29 14:39:35;;;;;;;0.77;0.77;;;;;;;;;;5000982;28;20049;-87
2023/08/29 14:42:01;;;;;;;0.68;0.68;;;;;;;;;;4999416;28;20084;-75